createdAt,value
2022-12-23T00:01:16.089Z,97345.69
2022-12-23T00:06:22.315Z,97365.88
2022-12-23T00:11:29.878Z,97360.44
2022-12-23T00:16:37.790Z,97357.84
2022-12-23T00:21:43.078Z,97358.63
2022-12-23T00:26:47.533Z,97350.88
2022-12-23T00:31:53.284Z,97357.38
2022-12-23T00:36:57.780Z,97365.13
2022-12-23T00:42:19.401Z,97378.38
2022-12-23T00:47:57.078Z,97381.94
2022-12-23T00:53:02.116Z,97382.91
2022-12-23T00:58:06.561Z,97382.59
2022-12-23T01:03:33.073Z,97392.91
2022-12-23T01:08:37.404Z,97382.25
2022-12-23T01:13:41.832Z,97380.50
2022-12-23T01:18:47.784Z,97375.84
2022-12-23T01:23:52.449Z,97380.03
2022-12-23T01:28:58.070Z,97385.03
2022-12-23T01:34:04.023Z,97385.69
2022-12-23T01:39:10.118Z,97377.78
2022-12-23T01:44:51.534Z,97396.84
2022-12-23T01:50:02.667Z,97397.63
2022-12-23T01:55:08.646Z,97401.69
2022-12-23T02:00:31.438Z,97400.56
2022-12-23T02:05:37.753Z,97394.59
2022-12-23T02:11:06.429Z,97392.66
2022-12-23T02:16:18.307Z,97387.19
2022-12-23T02:21:39.080Z,97398.94
2022-12-23T02:27:09.414Z,97403.94
2022-12-23T02:32:24.878Z,97399.28
2022-12-23T02:37:37.980Z,97411.38
2022-12-23T02:42:48.502Z,97414.13
2022-12-23T02:47:58.894Z,97411.22
2022-12-23T02:53:08.949Z,97408.28
2022-12-23T02:58:16.859Z,97398.94
2022-12-23T03:03:22.652Z,97403.28
2022-12-23T03:08:32.898Z,97400.03
2022-12-23T03:14:11.501Z,97399.41
2022-12-23T03:19:27.593Z,97391.94
2022-12-23T03:24:42.816Z,97391.75
2022-12-23T03:29:55.875Z,97395.22
2022-12-23T03:35:03.626Z,97399.00
2022-12-23T03:40:16.110Z,97393.97
2022-12-23T03:45:38.745Z,97396.16
2022-12-23T03:50:49.942Z,97407.38
2022-12-23T03:56:01.177Z,97407.78
2022-12-23T04:01:18.221Z,97387.22
2022-12-23T04:06:28.267Z,97390.56
2022-12-23T04:11:33.634Z,97381.81
2022-12-23T04:16:38.400Z,97383.38
2022-12-23T04:21:44.115Z,97388.31
2022-12-23T04:26:48.275Z,97390.53
2022-12-23T04:31:52.967Z,97378.53
2022-12-23T04:36:58.857Z,97382.38
2022-12-23T04:42:03.242Z,97378.59
2022-12-23T04:47:07.956Z,97376.47
2022-12-23T04:52:13.736Z,97383.53
2022-12-23T04:57:18.927Z,97383.16
2022-12-23T05:02:23.267Z,97383.47
2022-12-23T05:07:29.299Z,97386.19
2022-12-23T05:12:33.939Z,97378.59
2022-12-23T05:17:38.132Z,97388.75
2022-12-23T05:22:44.110Z,97392.16
2022-12-23T05:27:48.578Z,97384.81
2022-12-23T05:32:55.203Z,97383.97
2022-12-23T05:38:02.593Z,97381.25
2022-12-23T05:43:07.060Z,97376.09
2022-12-23T05:48:11.726Z,97371.41
2022-12-23T05:53:17.907Z,97362.41
2022-12-23T05:58:22.172Z,97376.63
2022-12-23T06:03:26.806Z,97373.16
2022-12-23T06:08:32.777Z,97378.09
2022-12-23T06:13:37.345Z,97376.91
2022-12-23T06:18:41.801Z,97366.50
2022-12-23T06:23:47.837Z,97358.53
2022-12-23T06:28:52.352Z,97362.25
2022-12-23T06:33:56.920Z,97370.88
2022-12-23T06:39:02.589Z,97358.69
2022-12-23T06:44:07.681Z,97368.91
2022-12-23T06:49:13.645Z,97372.50
2022-12-23T06:54:19.592Z,97372.38
2022-12-23T06:59:25.441Z,97353.69
2022-12-23T07:04:29.878Z,97355.66
2022-12-23T07:09:35.884Z,97349.88
2022-12-23T07:14:40.501Z,97355.06
2022-12-23T07:19:45.095Z,97358.94
2022-12-23T07:24:50.822Z,97364.13
2022-12-23T07:29:55.469Z,97366.75
2022-12-23T07:34:59.991Z,97362.41
2022-12-23T07:40:08.985Z,97355.50
2022-12-23T07:45:13.616Z,97335.69
2022-12-23T07:50:18.323Z,97332.13
2022-12-23T07:55:24.967Z,97332.28
2022-12-23T08:00:29.907Z,97334.06
2022-12-23T08:05:34.117Z,97328.75
2022-12-23T08:10:47.798Z,97331.47
2022-12-23T08:15:57.391Z,97333.59
2022-12-23T08:21:05.390Z,97331.84
2022-12-23T08:26:13.864Z,97337.47
2022-12-23T08:31:22.541Z,97331.66
2022-12-23T08:36:30.997Z,97325.50
2022-12-23T08:41:44.550Z,97336.97
2022-12-23T08:46:50.774Z,97332.91
2022-12-23T08:51:55.577Z,97324.03
2022-12-23T08:57:01.407Z,97318.00
2022-12-23T09:02:08.917Z,97314.88
2022-12-23T09:07:13.942Z,97309.97
2022-12-23T09:12:19.834Z,97307.56
2022-12-23T09:17:25.601Z,97306.59
2022-12-23T09:22:29.945Z,97306.91
2022-12-23T09:27:35.572Z,97297.41
2022-12-23T09:32:39.905Z,97281.81
2022-12-23T09:37:44.486Z,97276.69
2022-12-23T09:43:07.909Z,97273.41
2022-12-23T09:48:18.613Z,97267.28
2022-12-23T09:53:27.277Z,97270.63
2022-12-23T09:58:39.231Z,97260.16
2022-12-23T10:04:11.320Z,97263.19
2022-12-23T10:09:18.412Z,97257.84
2022-12-23T10:14:30.347Z,97261.06
2022-12-23T10:19:42.176Z,97257.19
2022-12-23T10:24:48.592Z,97256.59
2022-12-23T10:29:54.143Z,97254.16
2022-12-23T10:35:09.831Z,97251.28
2022-12-23T10:40:22.567Z,97248.41
2022-12-23T10:45:49.012Z,97251.78
2022-12-23T10:51:02.125Z,97244.47
2022-12-23T10:56:07.899Z,97239.94
2022-12-23T11:01:26.182Z,97232.34
2022-12-23T11:06:37.476Z,97233.75
2022-12-23T11:11:57.068Z,97237.53
2022-12-23T11:17:04.257Z,97232.34
2022-12-23T11:22:24.746Z,97223.91
2022-12-23T11:27:29.560Z,97227.28
2022-12-23T11:32:35.842Z,97240.53
2022-12-23T11:37:44.403Z,97233.16
2022-12-23T11:42:53.555Z,97243.03
2022-12-23T11:48:01.191Z,97236.16
2022-12-23T11:53:14.490Z,97238.50
2022-12-23T11:58:23.286Z,97238.16
2022-12-23T12:03:33.428Z,97246.22
2022-12-23T12:08:39.632Z,97247.00
2022-12-23T12:13:50.108Z,97248.91
2022-12-23T12:19:02.074Z,97247.09
2022-12-23T12:24:19.040Z,97253.63
2022-12-23T12:29:29.863Z,97259.75
2022-12-23T12:34:50.539Z,97253.19
2022-12-23T12:40:04.065Z,97251.03
2022-12-23T12:45:22.125Z,97258.31
2022-12-23T12:50:31.782Z,97256.59
2022-12-23T12:55:43.847Z,97256.97
2022-12-23T13:01:03.641Z,97246.16
2022-12-23T13:06:23.198Z,97255.44
2022-12-23T13:11:44.973Z,97257.09
2022-12-23T13:16:59.242Z,97270.06
2022-12-23T13:22:10.006Z,97259.88
2022-12-23T13:27:20.046Z,97266.03
2022-12-23T13:32:45.244Z,97266.50
2022-12-23T13:38:04.388Z,97261.19
2022-12-23T13:43:17.009Z,97261.53
2022-12-23T13:48:40.037Z,97261.69
2022-12-23T13:54:04.964Z,97275.13
2022-12-23T13:59:11.475Z,97275.00
2022-12-23T14:04:37.826Z,97280.19
2022-12-23T14:09:43.911Z,97288.59
2022-12-23T14:15:16.240Z,97282.13
2022-12-23T14:20:35.323Z,97290.59
2022-12-23T14:26:06.476Z,97295.13
2022-12-23T14:31:32.152Z,97298.72
2022-12-23T14:36:38.574Z,97311.81
2022-12-23T14:41:53.200Z,97312.81
2022-12-23T14:46:59.477Z,97316.56
2022-12-23T14:52:49.233Z,97312.72
2022-12-23T14:58:07.869Z,97306.72
2022-12-23T15:03:13.394Z,97312.25
2022-12-23T15:08:32.449Z,97307.84
2022-12-23T15:13:39.134Z,97305.59
2022-12-23T15:18:55.154Z,97309.81
2022-12-23T15:23:59.859Z,97313.53
2022-12-23T15:29:08.349Z,97307.72
2022-12-23T15:34:21.812Z,97307.09
2022-12-23T15:39:34.487Z,97302.53
2022-12-23T15:44:43.025Z,97301.75
2022-12-23T15:49:47.437Z,97312.13
2022-12-23T15:55:01.840Z,97307.56
2022-12-23T16:00:21.642Z,97316.47
2022-12-23T16:05:30.803Z,97312.41
2022-12-23T16:10:35.587Z,97314.69
2022-12-23T16:15:41.835Z,97316.78
2022-12-23T16:20:50.447Z,97317.91
2022-12-23T16:25:55.581Z,97313.38
2022-12-23T16:31:01.619Z,97304.34
2022-12-23T16:36:22.148Z,97308.53
2022-12-23T16:41:26.843Z,97309.34
2022-12-23T16:46:35.396Z,97308.53
2022-12-23T16:51:41.763Z,97305.31
2022-12-23T16:56:47.714Z,97309.88
2022-12-23T17:01:58.120Z,97308.88
2022-12-23T17:07:10.355Z,97295.13
2022-12-23T17:12:14.929Z,97297.72
2022-12-23T17:17:22.920Z,97310.78
2022-12-23T17:22:27.574Z,97316.78
2022-12-23T17:27:32.060Z,97317.75
2022-12-23T17:32:37.877Z,97323.59
2022-12-23T17:37:42.726Z,97315.97
2022-12-23T17:42:49.302Z,97324.72
2022-12-23T17:47:55.798Z,97325.50
2022-12-23T17:53:00.488Z,97325.69
2022-12-23T17:58:05.331Z,97326.00
2022-12-23T18:03:23.420Z,97320.53
2022-12-23T18:08:27.774Z,97336.88
2022-12-23T18:13:32.522Z,97328.13
2022-12-23T18:18:45.834Z,97334.13
2022-12-23T18:23:52.246Z,97333.31
2022-12-23T18:28:56.440Z,97336.88
2022-12-23T18:34:02.088Z,97339.13
2022-12-23T18:39:06.737Z,97346.38
2022-12-23T18:44:17.372Z,97342.19
2022-12-23T18:49:23.550Z,97337.66
2022-12-23T18:54:28.058Z,97335.59
2022-12-23T18:59:33.076Z,97327.66
2022-12-23T19:04:38.502Z,97328.59
2022-12-23T19:09:43.152Z,97330.72
2022-12-23T19:14:47.376Z,97328.47
2022-12-23T19:19:53.146Z,97332.84
2022-12-23T19:25:05.431Z,97331.22
2022-12-23T19:30:15.052Z,97331.88
2022-12-23T19:35:21.466Z,97340.94
2022-12-23T19:40:25.889Z,97349.50
2022-12-23T19:45:30.398Z,97345.66
2022-12-23T19:50:36.003Z,97333.16
2022-12-23T19:55:41.910Z,97330.56
2022-12-23T20:00:47.222Z,97324.44
2022-12-23T20:05:53.343Z,97318.31
2022-12-23T20:11:06.133Z,97310.53
2022-12-23T20:16:13.341Z,97303.44
2022-12-23T20:21:21.594Z,97296.63
2022-12-23T20:26:27.703Z,97288.44
2022-12-23T20:31:34.265Z,97287.81
2022-12-23T20:36:40.289Z,97288.78
2022-12-23T20:41:44.835Z,97283.94
2022-12-23T20:46:49.847Z,97287.84
2022-12-23T20:51:55.476Z,97295.47
2022-12-23T20:57:00.035Z,97290.91
2022-12-23T21:02:04.617Z,97294.31
2022-12-23T21:07:10.599Z,97294.31
2022-12-23T21:12:15.063Z,97300.63
2022-12-23T21:17:21.072Z,97296.25
2022-12-23T21:22:26.693Z,97294.31
2022-12-23T21:27:31.324Z,97279.59
2022-12-23T21:32:36.980Z,97289.28
2022-12-23T21:37:42.774Z,97297.88
2022-12-23T21:42:47.355Z,97299.63
2022-12-23T21:47:52.885Z,97292.06
2022-12-23T21:52:58.688Z,97287.03
2022-12-23T21:58:03.193Z,97288.97
2022-12-23T22:03:07.554Z,97287.03
2022-12-23T22:08:13.119Z,97283.63
2022-12-23T22:13:17.364Z,97284.28
2022-12-23T22:18:21.547Z,97270.53
2022-12-23T22:23:27.346Z,97272.78
2022-12-23T22:28:33.959Z,97262.94
2022-12-23T22:33:38.718Z,97264.56
2022-12-23T22:38:45.575Z,97260.50
2022-12-23T22:43:50.039Z,97255.31
2022-12-23T22:48:54.974Z,97254.38
2022-12-23T22:54:03.846Z,97251.59
2022-12-23T22:59:08.397Z,97246.25
2022-12-23T23:04:12.760Z,97245.63
2022-12-23T23:09:21.037Z,97231.88
2022-12-23T23:14:26.798Z,97215.88
2022-12-23T23:19:31.177Z,97216.31
2022-12-23T23:24:37.007Z,97235.88
2022-12-23T23:29:41.953Z,97222.78
2022-12-23T23:34:46.870Z,97217.94
2022-12-23T23:39:52.616Z,97210.97
2022-12-23T23:44:57.220Z,97204.38
2022-12-23T23:50:01.822Z,97193.72
2022-12-23T23:55:09.654Z,97195.16
